createdAt,value
2019-04-07T00:00:18.950Z,30.3
2019-04-07T00:01:09.092Z,30.1
2019-04-07T00:01:57.076Z,29.8
2019-04-07T00:02:47.523Z,29.7
2019-04-07T00:03:38.853Z,29.6
2019-04-07T00:04:27.074Z,29.4
2019-04-07T00:05:31.004Z,29.4
2019-04-07T00:06:06.559Z,29.3
2019-04-07T00:06:59.288Z,29.2
2019-04-07T00:07:49.518Z,29.1
2019-04-07T00:08:39.628Z,29.1
2019-04-07T00:09:27.827Z,29
2019-04-07T00:10:16.500Z,28.9
2019-04-07T00:11:07.183Z,28.9
2019-04-07T00:11:59.121Z,28.8
2019-04-07T00:12:45.716Z,28.8
2019-04-07T00:13:36.483Z,28.8
2019-04-07T00:14:26.017Z,28.6
2019-04-07T00:15:19.252Z,28.6
2019-04-07T00:16:08.391Z,28.5
2019-04-07T00:16:57.422Z,28.5
2019-04-07T00:17:48.163Z,28.4
2019-04-07T00:18:37.285Z,28.3
2019-04-07T00:19:28.296Z,28.3
2019-04-07T00:20:18.657Z,28.2
2019-04-07T00:21:09.129Z,28.1
2019-04-07T00:21:57.700Z,28.1
2019-04-07T00:22:46.030Z,28
2019-04-07T00:23:37.389Z,27.9
2019-04-07T00:26:08.030Z,27.7
2019-04-07T00:26:56.640Z,27.6
2019-04-07T00:27:46.869Z,27.6
2019-04-07T00:28:35.774Z,27.5
2019-04-07T00:29:28.801Z,27.4
2019-04-07T00:30:17.943Z,27.4
2019-04-07T00:31:07.567Z,27.3
2019-04-07T00:31:56.762Z,27.2
2019-04-07T00:32:47.664Z,27.1
2019-04-07T00:33:38.211Z,27.1
2019-04-07T00:34:30.902Z,27
2019-04-07T00:35:40.581Z,26.9
2019-04-07T00:36:11.392Z,26.8
2019-04-07T00:36:59.943Z,26.8
2019-04-07T00:37:50.163Z,26.7
2019-04-07T00:38:41.112Z,26.6
2019-04-07T00:39:30.258Z,26.6
2019-04-07T00:40:24.002Z,26.5
2019-04-07T00:41:12.781Z,28.1
2019-04-07T00:42:00.616Z,29.3
2019-04-07T00:42:50.880Z,30.2
2019-04-07T00:43:42.910Z,30.9
2019-04-07T00:44:34.369Z,31.6
2019-04-07T00:45:22.261Z,32.2
2019-04-07T00:46:13.593Z,32.7
2019-04-07T00:47:01.926Z,33.1
2019-04-07T00:47:54.335Z,33.5
2019-04-07T00:48:40.721Z,33.9
2019-04-07T00:49:31.117Z,33.5
2019-04-07T00:50:24.081Z,33.3
2019-04-07T00:51:11.168Z,32.8
2019-04-07T00:52:02.816Z,32.2
2019-04-07T00:52:54.637Z,31.5
2019-04-07T00:53:42.717Z,31
2019-04-07T00:54:32.855Z,30.6
2019-04-07T00:55:22.320Z,30.4
2019-04-07T00:56:12.461Z,30.1
2019-04-07T00:57:01.932Z,29.9
2019-04-07T00:57:51.980Z,29.8
2019-04-07T00:58:43.376Z,29.6
2019-04-07T00:59:33.975Z,29.5
2019-04-07T01:00:25.447Z,29.4
2019-04-07T01:01:13.134Z,29.3
2019-04-07T01:02:03.516Z,29.3
2019-04-07T01:02:55.179Z,29.2
2019-04-07T01:03:43.292Z,29.1
2019-04-07T01:04:33.327Z,29.1
2019-04-07T01:05:38.455Z,29
2019-04-07T01:06:12.006Z,28.9
2019-04-07T01:07:02.695Z,28.9
2019-04-07T01:07:53.085Z,28.8
2019-04-07T01:08:44.795Z,28.8
2019-04-07T01:09:35.261Z,28.8
2019-04-07T01:10:24.762Z,28.6
2019-04-07T01:11:12.263Z,28.6
2019-04-07T01:12:04.033Z,28.5
2019-04-07T01:12:54.417Z,28.4
2019-04-07T01:13:44.202Z,28.4
2019-04-07T01:14:32.356Z,28.3
2019-04-07T01:15:21.917Z,28.3
2019-04-07T01:16:11.934Z,28.2
2019-04-07T01:17:03.553Z,28.1
2019-04-07T01:17:53.328Z,28.1
2019-04-07T01:18:44.699Z,27.9
2019-04-07T01:19:35.340Z,27.9
2019-04-07T01:21:11.579Z,27.8
2019-04-07T01:22:04.246Z,27.7
2019-04-07T01:22:55.222Z,27.6
2019-04-07T01:23:44.109Z,27.5
2019-04-07T01:24:36.392Z,27.4
2019-04-07T01:25:24.706Z,27.4
2019-04-07T01:26:12.748Z,27.3
2019-04-07T01:27:01.923Z,27.3
2019-04-07T01:27:53.354Z,27.2
2019-04-07T01:28:42.900Z,27.1
2019-04-07T01:29:35.329Z,27
2019-04-07T01:30:26.053Z,26.9
2019-04-07T01:31:14.367Z,26.9
2019-04-07T01:32:02.913Z,26.8
2019-04-07T01:32:52.123Z,26.8
2019-04-07T01:33:44.810Z,26.7
2019-04-07T01:34:34.965Z,26.6
2019-04-07T01:35:27.628Z,27.1
2019-04-07T01:36:14.556Z,28.6
2019-04-07T01:37:05.573Z,29.6
2019-04-07T01:37:56.129Z,30.4
2019-04-07T01:38:45.344Z,31.2
2019-04-07T01:39:35.151Z,31.8
2019-04-07T01:40:26.167Z,32.3
2019-04-07T01:41:15.263Z,32.8
2019-04-07T01:42:05.811Z,33.2
2019-04-07T01:42:56.367Z,33.6
2019-04-07T01:43:45.407Z,33.9
2019-04-07T01:44:36.530Z,33.8
2019-04-07T01:45:26.787Z,33.4
2019-04-07T01:46:15.238Z,32.9
2019-04-07T01:47:03.710Z,32.3
2019-04-07T01:47:55.912Z,31.7
2019-04-07T01:48:44.747Z,31.2
2019-04-07T01:49:33.829Z,30.8
2019-04-07T01:50:26.209Z,30.5
2019-04-07T01:51:13.486Z,30.3
2019-04-07T01:52:05.023Z,30.1
2019-04-07T01:52:55.519Z,29.9
2019-04-07T01:53:44.477Z,29.8
2019-04-07T01:54:37.211Z,29.7
2019-04-07T01:55:25.726Z,29.6
2019-04-07T01:56:17.318Z,29.5
2019-04-07T01:57:06.295Z,29.4
2019-04-07T01:57:58.159Z,29.3
2019-04-07T01:58:47.001Z,29.3
2019-04-07T01:59:36.495Z,29.2
2019-04-07T02:00:26.893Z,29.1
2019-04-07T02:01:18.312Z,29.1
2019-04-07T02:02:08.097Z,29
2019-04-07T02:02:57.253Z,28.9
2019-04-07T02:03:49.532Z,28.9
2019-04-07T02:04:37.864Z,28.8
2019-04-07T02:05:27.469Z,28.8
2019-04-07T02:06:18.861Z,28.7
2019-04-07T02:07:08.153Z,28.6
2019-04-07T02:07:57.314Z,28.6
2019-04-07T02:08:47.986Z,28.5
2019-04-07T02:09:40.213Z,28.4
2019-04-07T02:10:29.219Z,28.4
2019-04-07T02:11:18.700Z,28.3
2019-04-07T02:12:07.859Z,28.2
2019-04-07T02:12:59.356Z,28.1
2019-04-07T02:13:49.292Z,28.1
2019-04-07T02:14:37.812Z,28
2019-04-07T02:15:30.318Z,27.9
2019-04-07T02:17:59.320Z,27.7
2019-04-07T02:18:49.572Z,27.6
2019-04-07T02:19:39.558Z,27.6
2019-04-07T02:20:29.449Z,27.4
2019-04-07T02:21:19.638Z,27.4
2019-04-07T02:22:08.992Z,27.3
2019-04-07T02:22:58.808Z,27.3
2019-04-07T02:23:49.336Z,27.2
2019-04-07T02:24:42.228Z,27.1
2019-04-07T02:25:30.545Z,27
2019-04-07T02:26:19.948Z,26.9
2019-04-07T02:27:08.571Z,26.9
2019-04-07T02:27:59.867Z,26.8
2019-04-07T02:28:48.366Z,26.8
2019-04-07T02:29:41.470Z,26.5
2019-04-07T02:30:30.941Z,27.6
2019-04-07T02:31:19.666Z,28.9
2019-04-07T02:32:13.153Z,29.9
2019-04-07T02:33:04.396Z,30.7
2019-04-07T02:33:51.083Z,31.3
2019-04-07T02:34:40.016Z,31.8
2019-04-07T02:35:32.930Z,32.3
2019-04-07T02:36:49.796Z,32.8
2019-04-07T02:37:13.850Z,33.4
2019-04-07T02:38:00.042Z,33.6
2019-04-07T02:38:51.725Z,33.9
2019-04-07T02:39:44.363Z,33.9
2019-04-07T02:40:33.014Z,33.4
2019-04-07T02:41:22.615Z,33.1
2019-04-07T02:42:09.503Z,32.4
2019-04-07T02:43:03.694Z,31.8
2019-04-07T02:43:49.347Z,31.3
2019-04-07T02:44:41.960Z,30.9
2019-04-07T02:45:32.266Z,30.6
2019-04-07T02:46:22.273Z,30.3
2019-04-07T02:47:10.432Z,30.1
2019-04-07T02:48:01.587Z,29.9
2019-04-07T02:48:50.972Z,29.8
2019-04-07T02:49:43.683Z,29.7
2019-04-07T02:50:32.219Z,29.6
2019-04-07T02:51:20.357Z,29.5
2019-04-07T02:52:12.099Z,29.4
2019-04-07T02:53:06.268Z,29.3
2019-04-07T02:53:55.174Z,29.3
2019-04-07T02:54:40.716Z,29.2
2019-04-07T02:55:31.664Z,29.1
2019-04-07T02:56:23.707Z,29.1
2019-04-07T02:57:11.368Z,29
2019-04-07T02:58:01.490Z,28.9
2019-04-07T02:58:52.718Z,28.9
2019-04-07T02:59:49.566Z,28.9
2019-04-07T03:00:33.684Z,28.8
2019-04-07T03:01:23.029Z,28.7
2019-04-07T03:02:14.248Z,28.6
2019-04-07T03:03:04.667Z,28.6
2019-04-07T03:03:54.351Z,28.5
2019-04-07T03:07:37.463Z,28.3
2019-04-07T03:08:28.945Z,28.1
2019-04-07T03:09:19.231Z,28.1
2019-04-07T03:10:44.062Z,27.9
2019-04-07T03:11:37.896Z,27.9
2019-04-07T03:13:14.926Z,27.7
2019-04-07T03:14:04.205Z,27.6
2019-04-07T03:14:55.857Z,27.6
2019-04-07T03:15:42.892Z,27.5
2019-04-07T03:16:35.362Z,27.4
2019-04-07T03:17:23.274Z,27.3
2019-04-07T03:18:16.394Z,27.3
2019-04-07T03:19:04.470Z,27.2
2019-04-07T03:19:54.080Z,27.1
2019-04-07T03:20:45.953Z,27
2019-04-07T03:21:33.586Z,27
2019-04-07T03:22:26.269Z,26.9
2019-04-07T03:23:16.857Z,26.8
2019-04-07T03:24:06.170Z,26.8
2019-04-07T03:24:54.842Z,26.9
2019-04-07T03:25:47.065Z,28.3
2019-04-07T03:26:36.422Z,29.5
2019-04-07T03:27:24.010Z,30.3
2019-04-07T03:28:17.837Z,30.9
2019-04-07T03:29:06.100Z,31.6
2019-04-07T03:30:30.984Z,32.1
2019-04-07T03:31:29.395Z,32.8
2019-04-07T03:32:36.152Z,33.3
2019-04-07T03:34:04.048Z,33.7
2019-04-07T03:35:03.732Z,33.6
2019-04-07T03:36:32.727Z,33.3
2019-04-07T03:38:03.029Z,32
2019-04-07T03:38:24.755Z,31.3
2019-04-07T03:39:12.498Z,31.1
2019-04-07T03:40:17.925Z,30.8
2019-04-07T03:41:05.578Z,30.4
2019-04-07T03:41:58.999Z,30.2
2019-04-07T03:42:28.455Z,30
2019-04-07T03:43:22.237Z,29.9
2019-04-07T03:44:16.404Z,29.8
2019-04-07T03:45:01.747Z,29.7
2019-04-07T03:45:50.381Z,29.6
2019-04-07T03:46:45.387Z,29.5
2019-04-07T03:47:32.942Z,29.4
2019-04-07T03:48:26.313Z,29.3
2019-04-07T03:49:12.511Z,29.3
2019-04-07T03:50:03.268Z,29.2
2019-04-07T03:51:05.180Z,29.1
2019-04-07T03:51:43.906Z,29.1
2019-04-07T03:52:36.505Z,29
2019-04-07T03:53:21.158Z,28.9
2019-04-07T03:54:14.209Z,28.9
2019-04-07T03:55:02.724Z,28.8
2019-04-07T03:56:10.149Z,28.8
2019-04-07T03:56:44.046Z,28.7
2019-04-07T03:57:31.153Z,28.6
2019-04-07T03:58:25.807Z,28.6
2019-04-07T03:59:13.431Z,28.5
2019-04-07T04:00:05.824Z,28.4
2019-04-07T04:00:55.091Z,28.4
2019-04-07T04:01:47.731Z,28.3
2019-04-07T04:02:35.428Z,28.2
2019-04-07T04:03:25.665Z,28.2
2019-04-07T04:04:13.712Z,28.1
2019-04-07T04:05:05.150Z,28
2019-04-07T04:06:00.144Z,27.9
2019-04-07T04:07:55.106Z,27.8
2019-04-07T04:08:22.795Z,27.7
2019-04-07T04:09:15.224Z,27.6
2019-04-07T04:10:04.505Z,27.6
2019-04-07T04:10:55.607Z,27.4
2019-04-07T04:11:45.705Z,27.4
2019-04-07T04:12:35.605Z,27.3
2019-04-07T04:13:25.320Z,27.3
2019-04-07T04:14:14.958Z,27.2
2019-04-07T04:15:08.745Z,27.1
2019-04-07T04:15:54.685Z,27
2019-04-07T04:16:43.375Z,26.9
2019-04-07T04:17:37.007Z,26.9
2019-04-07T04:18:24.979Z,26.8
2019-04-07T04:19:18.754Z,26.8
2019-04-07T04:20:02.885Z,28.2
2019-04-07T04:20:54.241Z,29.3
2019-04-07T04:21:47.877Z,30.1
2019-04-07T04:22:37.722Z,30.9
2019-04-07T04:23:26.819Z,31.4
2019-04-07T04:24:18.335Z,31.9
2019-04-07T04:25:06.976Z,32.4
2019-04-07T04:25:57.133Z,32.8
2019-04-07T04:26:45.862Z,33.3
2019-04-07T04:27:37.354Z,33.5
2019-04-07T04:28:25.744Z,33.8
2019-04-07T04:29:17.531Z,34.1
2019-04-07T04:30:13.944Z,33.5
2019-04-07T04:30:59.735Z,33.1
2019-04-07T04:31:47.341Z,32.6
2019-04-07T04:32:35.769Z,32
2019-04-07T04:33:23.709Z,31.4
2019-04-07T04:34:17.826Z,30.9
2019-04-07T04:35:08.384Z,30.6
2019-04-07T04:35:56.425Z,30.4
2019-04-07T04:37:04.329Z,30.2
2019-04-07T04:38:10.251Z,29.9
2019-04-07T04:38:28.354Z,29.8
2019-04-07T04:39:26.399Z,29.7
2019-04-07T04:40:09.819Z,29.6
2019-04-07T04:40:58.100Z,29.5
2019-04-07T04:41:50.819Z,29.4
2019-04-07T04:42:42.007Z,29.3
2019-04-07T04:43:28.053Z,29.3
2019-04-07T04:44:17.226Z,29.2
2019-04-07T04:45:11.371Z,29.1
2019-04-07T04:45:59.970Z,29
2019-04-07T04:46:49.842Z,28.9
2019-04-07T04:47:37.359Z,28.9
2019-04-07T04:48:28.311Z,28.8
2019-04-07T04:49:21.044Z,28.8
2019-04-07T04:50:10.879Z,28.7
2019-04-07T04:50:57.960Z,28.6
2019-04-07T04:51:55.891Z,28.5
2019-04-07T04:52:34.714Z,28.4
2019-04-07T04:53:26.853Z,28.4
2019-04-07T04:54:19.203Z,28.3
2019-04-07T04:55:07.041Z,28.3
2019-04-07T04:55:57.654Z,28.2
2019-04-07T04:56:48.350Z,28.1
2019-04-07T06:05:26.725Z,26.8
2019-04-07T06:06:15.817Z,26.8
2019-04-07T06:07:11.643Z,26.5
2019-04-07T06:07:54.183Z,28
2019-04-07T06:09:01.836Z,29.1
2019-04-07T06:09:43.753Z,30.3
2019-04-07T06:10:32.547Z,30.9
2019-04-07T06:11:18.475Z,31.6
2019-04-07T06:12:11.982Z,32.1
2019-04-07T06:13:01.027Z,32.6
2019-04-07T06:13:51.924Z,32.9
2019-04-07T06:14:34.005Z,33.4
2019-04-07T06:15:31.230Z,33.7
2019-04-07T06:16:12.942Z,34
2019-04-07T06:17:08.792Z,34.2
2019-04-07T06:18:04.064Z,33.6
2019-04-07T06:18:49.221Z,33.1
2019-04-07T06:19:30.566Z,32.6
2019-04-07T06:20:30.144Z,32
2019-04-07T06:21:19.420Z,31.4
2019-04-07T06:22:02.326Z,30.9
2019-04-07T06:23:04.429Z,30.7
2019-04-07T06:23:46.381Z,30.4
2019-04-07T06:24:44.822Z,30.2
2019-04-07T06:25:27.211Z,30
2019-04-07T06:26:23.262Z,29.8
2019-04-07T06:27:05.522Z,29.8
2019-04-07T06:28:00.884Z,29.6
2019-04-07T06:28:50.999Z,29.5
2019-04-07T06:29:40.416Z,29.4
2019-04-07T06:30:28.043Z,29.4
2019-04-07T06:31:18.367Z,29.3
2019-04-07T06:32:16.549Z,29.2
2019-04-07T06:32:58.565Z,29.1
2019-04-07T06:33:54.356Z,29.1
2019-04-07T06:34:34.765Z,29
2019-04-07T06:35:29.308Z,28.9
2019-04-07T06:36:25.260Z,28.9
2019-04-07T06:37:12.269Z,28.8
2019-04-07T06:38:05.961Z,28.7
2019-04-07T06:39:07.223Z,28.6
2019-04-07T06:39:40.635Z,28.6
2019-04-07T06:40:32.463Z,28.5
2019-04-07T06:41:18.902Z,28.4
2019-04-07T06:42:09.997Z,28.4
2019-04-07T06:43:01.499Z,28.3
2019-04-07T06:43:50.673Z,28.2
2019-04-07T06:44:38.512Z,28.1
2019-04-07T06:45:31.524Z,28.1
2019-04-07T06:46:16.063Z,27.9
2019-04-07T06:47:12.905Z,27.9
2019-04-07T06:48:51.930Z,27.8
2019-04-07T06:49:48.187Z,27.7
2019-04-07T06:50:30.999Z,27.6
2019-04-07T06:51:18.884Z,27.5
2019-04-07T06:52:15.145Z,27.4
2019-04-07T06:52:56.630Z,27.4
2019-04-07T06:53:51.422Z,27.3
2019-04-07T06:54:39.862Z,27.2
2019-04-07T06:55:36.790Z,27.1
2019-04-07T06:56:20.728Z,27.1
2019-04-07T06:57:13.874Z,26.9
2019-04-07T06:57:57.046Z,26.9
2019-04-07T06:58:56.259Z,26.8
2019-04-07T06:59:35.160Z,26.7
2019-04-07T07:00:32.613Z,26.6
2019-04-07T07:01:19.037Z,26.5
2019-04-07T07:02:11.098Z,26.4
2019-04-07T07:03:04.246Z,26.4
2019-04-07T07:05:46.045Z,26.2
2019-04-07T07:06:21.914Z,26.1
2019-04-07T07:07:26.602Z,25.9
2019-04-07T07:08:05.414Z,25.9
2019-04-07T07:09:10.360Z,25.8
2019-04-07T07:09:45.840Z,25.7
2019-04-07T07:10:59.392Z,25.7
2019-04-07T07:11:52.223Z,25.6
2019-04-07T07:12:42.877Z,25.5
2019-04-07T07:13:45.954Z,25.4
2019-04-07T07:14:06.087Z,25.4
2019-04-07T07:15:10.035Z,25.3
2019-04-07T07:15:52.874Z,25.2
2019-04-07T07:16:36.140Z,26.2
2019-04-07T07:17:32.286Z,27.8
2019-04-07T07:18:34.374Z,29.2
2019-04-07T07:19:14.144Z,30.6
2019-04-07T07:20:14.467Z,31.1
2019-04-07T07:20:48.202Z,31.8
2019-04-07T07:21:46.588Z,32.1
2019-04-07T07:22:32.598Z,32.6
2019-04-07T07:23:29.601Z,32.1
2019-04-07T07:24:07.128Z,31.9
2019-04-07T07:25:18.851Z,31.9
2019-04-07T07:25:51.863Z,31.7
2019-04-07T07:27:27.899Z,31.4
2019-04-07T07:28:22.746Z,31.3
2019-04-07T07:29:29.976Z,31.1
2019-04-07T07:30:07.729Z,31
2019-04-07T07:30:49.742Z,30.9
2019-04-07T07:32:08.743Z,30.8
2019-04-07T07:32:28.009Z,30.6
2019-04-07T07:33:44.732Z,30.6
2019-04-07T07:34:09.267Z,30.4
2019-04-07T07:34:57.584Z,30.3
2019-04-07T07:35:51.328Z,30.2
2019-04-07T07:36:59.907Z,30.1
2019-04-07T07:37:33.344Z,29.9
2019-04-07T10:06:24.279Z,24.1
2019-04-07T10:07:18.337Z,24.1
2019-04-07T10:08:07.084Z,24
2019-04-07T10:08:53.279Z,24
2019-04-07T10:09:42.141Z,23.9
2019-04-07T10:10:36.070Z,23.9
2019-04-07T10:11:23.046Z,23.8
2019-04-07T10:12:11.676Z,23.8
2019-04-07T10:13:04.123Z,23.7
2019-04-07T10:13:54.096Z,23.6
2019-04-07T10:14:44.466Z,23.6
2019-04-07T10:15:31.660Z,23.6
2019-04-07T10:16:28.197Z,23.5
2019-04-07T10:17:13.318Z,23.4
2019-04-07T10:18:03.003Z,23.4
2019-04-07T10:18:50.885Z,23.3
2019-04-07T10:19:43.163Z,23.3
2019-04-07T10:20:39.664Z,23.3
2019-04-07T10:21:22.712Z,23.2
2019-04-07T10:22:16.365Z,23.2
2019-04-07T10:23:03.760Z,23.1
2019-04-07T10:23:57.405Z,23.1
2019-04-07T10:24:43.728Z,23.1
2019-04-07T10:25:37.693Z,23.1
2019-04-07T10:26:22.950Z,23
2019-04-07T10:27:13.701Z,22.9
2019-04-07T10:28:07.174Z,22.9
2019-04-07T10:29:02.801Z,22.9
2019-04-07T10:29:43.863Z,22.9
2019-04-07T10:30:34.840Z,22.9
2019-04-07T10:31:26.628Z,22.8
2019-04-07T10:32:15.390Z,22.8
2019-04-07T10:33:05.532Z,22.8
2019-04-07T10:33:55.077Z,22.8
2019-04-07T10:34:44.949Z,22.7
2019-04-07T10:35:33.755Z,22.7
2019-04-07T10:36:25.842Z,22.6
2019-04-07T10:37:20.009Z,22.6
2019-04-07T10:38:08.729Z,22.6
2019-04-07T10:38:55.547Z,22.6
2019-04-07T10:39:44.479Z,22.6
2019-04-07T10:40:40.108Z,22.6
2019-04-07T10:41:26.136Z,22.5
2019-04-07T10:42:16.848Z,22.5
2019-04-07T10:43:10.644Z,22.4
2019-04-07T10:43:56.324Z,22.5
2019-04-07T10:44:45.322Z,22.4
2019-04-07T10:45:33.824Z,22.4
2019-04-07T10:46:28.334Z,22.4
2019-04-07T10:47:15.004Z,22.4
2019-04-07T10:48:08.006Z,22.4
2019-04-07T10:48:57.253Z,22.4
2019-04-07T10:50:08.853Z,22.4
2019-04-07T10:50:39.379Z,22.4
2019-04-07T10:51:26.316Z,22.3
2019-04-07T10:52:16.935Z,22.3
2019-04-07T10:53:08.157Z,22.3
2019-04-07T10:53:58.401Z,22.3
2019-04-07T10:54:46.294Z,22.2
2019-04-07T10:55:37.906Z,22.3
2019-04-07T10:56:26.554Z,22.3
2019-04-07T10:57:17.776Z,22.3
2019-04-07T10:58:09.094Z,22.3
2019-04-07T10:58:59.299Z,22.3
2019-04-07T10:59:43.419Z,22.2
2019-04-07T11:00:35.377Z,22.2
2019-04-07T11:01:27.706Z,22.2
2019-04-07T11:02:19.205Z,22.1
2019-04-07T11:03:14.647Z,22.2
2019-04-07T11:03:59.409Z,22.1
2019-04-07T11:04:47.365Z,22.1
2019-04-07T11:05:38.319Z,22.1
2019-04-07T11:06:32.775Z,22.1
2019-04-07T11:07:22.138Z,22.1
2019-04-07T11:08:08.165Z,22.1
2019-04-07T11:08:58.994Z,22.1
2019-04-07T11:09:47.969Z,22.1
2019-04-07T11:10:56.015Z,22.1
2019-04-07T11:11:28.635Z,22
2019-04-07T11:12:16.858Z,22
2019-04-07T11:13:15.617Z,22
2019-04-07T11:13:57.322Z,22
2019-04-07T11:14:48.909Z,22
2019-04-07T11:15:39.334Z,22
2019-04-07T11:16:26.265Z,22
2019-04-07T11:17:20.440Z,22
2019-04-07T11:18:09.273Z,21.9
2019-04-07T11:18:59.587Z,21.9
2019-04-07T11:19:51.323Z,21.9
2019-04-07T11:20:37.363Z,21.9
2019-04-07T11:21:29.210Z,21.9
2019-04-07T11:22:17.752Z,21.9
2019-04-07T11:23:09.705Z,21.9
2019-04-07T11:23:56.829Z,21.9
2019-04-07T11:24:49.734Z,21.9
2019-04-07T11:25:40.076Z,21.9
2019-04-07T11:26:28.954Z,21.9
2019-04-07T11:27:21.124Z,21.9
2019-04-07T11:28:10.032Z,21.9
2019-04-07T11:28:59.376Z,21.9
2019-04-07T11:29:55.484Z,21.9
2019-04-07T11:30:39.836Z,21.8
2019-04-07T11:31:30.955Z,21.9
2019-04-07T11:32:17.382Z,21.9
2019-04-07T11:33:09.485Z,21.9
2019-04-07T11:33:58.818Z,21.9
2019-04-07T11:34:46.591Z,21.8
2019-04-07T11:35:45.565Z,21.8
2019-04-07T11:36:36.393Z,21.8
2019-04-07T11:37:24.512Z,21.8
2019-04-07T11:38:10.186Z,21.8
2019-04-07T11:39:00.738Z,21.9
2019-04-07T11:39:48.655Z,21.8
2019-04-07T11:40:59.501Z,21.8
2019-04-07T11:41:37.821Z,21.8
2019-04-07T11:42:21.726Z,21.8
2019-04-07T11:43:10.641Z,21.8
2019-04-07T11:43:57.486Z,21.8
2019-04-07T11:44:47.514Z,21.8
2019-04-07T11:45:36.424Z,21.8
2019-04-07T11:46:30.548Z,21.8
2019-04-07T11:47:18.340Z,21.8
2019-04-07T11:48:11.047Z,21.8
2019-04-07T11:49:02.931Z,21.8
2019-04-07T11:49:59.248Z,21.8
2019-04-07T11:50:41.694Z,21.8
2019-04-07T11:51:33.028Z,21.8
2019-04-07T11:52:20.673Z,21.8
2019-04-07T11:53:12.091Z,21.9
2019-04-07T11:53:59.885Z,21.8
2019-04-07T11:54:53.774Z,21.8
2019-04-07T11:55:45.395Z,21.8
2019-04-07T11:56:31.723Z,21.8
2019-04-07T11:57:22.557Z,21.8
2019-04-07T11:58:50.820Z,21.8
2019-04-07T11:59:12.052Z,21.6
2019-04-07T11:59:59.078Z,21.7
2019-04-07T12:00:57.096Z,21.7
2019-04-07T12:01:47.842Z,21.7
2019-04-07T12:02:38.121Z,21.6
2019-04-07T12:03:29.909Z,21.6
2019-04-07T12:06:36.453Z,21.6
2019-04-07T12:08:13.973Z,21.7
2019-04-07T12:08:56.216Z,21.6
2019-04-07T12:09:44.318Z,21.6
2019-04-07T12:10:34.332Z,21.6
2019-04-07T12:11:26.617Z,21.6
2019-04-07T12:12:15.139Z,21.6
2019-04-07T12:13:04.780Z,21.6
2019-04-07T12:14:00.841Z,21.6
2019-04-07T12:14:50.267Z,21.6
2019-04-07T12:15:46.265Z,21.6
2019-04-07T12:16:30.806Z,21.6
2019-04-07T12:17:26.802Z,21.6
2019-04-07T12:18:07.544Z,21.6
2019-04-07T12:19:16.284Z,21.6
2019-04-07T12:19:46.164Z,21.5
2019-04-07T12:20:46.164Z,21.5
2019-04-07T12:21:46.785Z,21.6
2019-04-07T12:22:24.969Z,21.4
2019-04-07T12:23:06.887Z,21.5
2019-04-07T12:24:04.601Z,21.5
2019-04-07T12:25:08.371Z,21.4
2019-04-07T12:25:43.407Z,21.5
2019-04-07T12:26:25.915Z,21.4
2019-04-07T12:27:27.739Z,21.5
2019-04-07T12:28:05.441Z,21.4
2019-04-07T12:29:02.562Z,21.5
2019-04-07T12:29:44.529Z,21.4
2019-04-07T12:30:39.098Z,21.4
2019-04-07T12:31:26.024Z,21.4
2019-04-07T12:32:13.614Z,21.4
2019-04-07T12:33:13.559Z,21.4
2019-04-07T12:33:55.804Z,21.4
2019-04-07T12:34:52.121Z,21.4
2019-04-07T12:35:39.923Z,21.4
2019-04-07T12:36:37.568Z,21.4
2019-04-07T12:37:24.780Z,21.4
2019-04-07T12:38:17.614Z,21.4
2019-04-07T12:39:00.241Z,21.4
2019-04-07T12:39:56.520Z,21.4
2019-04-07T12:40:42.023Z,21.4
2019-04-07T12:41:45.753Z,21.4
2019-04-07T12:42:24.395Z,21.3
2019-04-07T12:43:20.158Z,21.4
2019-04-07T12:44:07.945Z,21.4
2019-04-07T12:44:46.857Z,21.4
2019-04-07T12:45:40.425Z,21.3
2019-04-07T12:46:26.321Z,21.4
2019-04-07T12:47:17.062Z,21.3
2019-04-07T12:48:07.442Z,21.3
2019-04-07T12:48:57.521Z,21.3
2019-04-07T12:50:00.008Z,21.3
2019-04-07T12:50:36.025Z,21.3
2019-04-07T12:51:31.798Z,21.3
2019-04-07T12:52:17.360Z,21.3
2019-04-07T12:53:35.297Z,21.3
2019-04-07T12:54:01.783Z,21.3
2019-04-07T12:54:55.789Z,21.3
2019-04-07T12:55:38.042Z,21.3
2019-04-07T12:56:36.017Z,21.3
2019-04-07T12:57:24.186Z,21.3
2019-04-07T12:58:15.921Z,21.3
2019-04-07T12:59:05.120Z,21.3
2019-04-07T12:59:56.150Z,21.3
2019-04-07T13:01:29.209Z,21.3
2019-04-07T13:01:57.680Z,21.3
2019-04-07T13:02:38.112Z,21.2
2019-04-07T13:03:28.871Z,21.2
2019-04-07T13:04:35.316Z,21.3
2019-04-07T13:05:16.432Z,21.2
2019-04-07T13:05:57.402Z,21.3
2019-04-07T13:06:56.677Z,21.3
2019-04-07T13:07:42.017Z,21.2
2019-04-07T13:08:35.914Z,21.2
2019-04-07T13:09:17.115Z,21.2
2019-04-07T13:10:16.088Z,21.2
2019-04-07T13:10:57.761Z,21.3
2019-04-07T13:12:08.658Z,21.2
2019-04-07T13:12:43.828Z,21.2
2019-04-07T13:17:47.300Z,21.2
2019-04-07T13:21:57.021Z,21.1
2019-04-07T13:23:28.706Z,21.1
2019-04-07T13:26:17.533Z,21.1
2019-04-07T13:27:13.980Z,21.1
2019-04-07T13:27:56.275Z,21.1
2019-04-07T13:29:35.675Z,21.1
2019-04-07T13:31:15.604Z,21.1
2019-04-07T13:33:15.020Z,21.1
2019-04-07T13:33:47.327Z,21.1
2019-04-07T13:34:44.855Z,21.1
2019-04-07T13:35:18.208Z,21.1
2019-04-07T13:36:17.078Z,21.1
2019-04-07T13:37:10.155Z,21.1
2019-04-07T13:38:00.126Z,21.1
2019-04-07T13:38:46.866Z,21.1
2019-04-07T13:39:48.815Z,21.1
2019-04-07T13:40:30.613Z,21.1
2019-04-07T13:41:21.995Z,21.1
2019-04-07T13:42:13.128Z,21.1
2019-04-07T13:43:08.880Z,21.1
2019-04-07T13:43:52.758Z,21
2019-04-07T13:44:44.603Z,21.1
2019-04-07T13:45:32.846Z,21.1
2019-04-07T13:46:47.886Z,21.1
2019-04-07T13:47:12.230Z,21.1
2019-04-07T13:48:01.427Z,21.1
2019-04-07T13:48:58.743Z,21.1
2019-04-07T13:49:47.397Z,21
2019-04-07T13:50:35.460Z,21.1
2019-04-07T13:51:16.928Z,21.1
2019-04-07T13:51:59.374Z,21.1
2019-04-07T13:53:12.152Z,21
2019-04-07T13:54:12.261Z,21
2019-04-07T13:54:44.764Z,21
2019-04-07T13:55:28.476Z,21
2019-04-07T13:56:23.079Z,21
2019-04-07T13:57:07.109Z,21.1
2019-04-07T13:58:04.406Z,21.1
2019-04-07T13:58:50.908Z,21.1
2019-04-07T13:59:43.993Z,21
2019-04-07T14:00:33.891Z,21
2019-04-07T14:01:23.835Z,21
2019-04-07T14:02:30.169Z,21
2019-04-07T14:02:57.052Z,21
2019-04-07T14:03:49.298Z,21.1
2019-04-07T14:05:09.877Z,21
2019-04-07T14:07:30.617Z,21
2019-04-07T14:08:13.882Z,21.1
2019-04-07T14:09:07.763Z,21
2019-04-07T14:09:53.892Z,21
2019-04-07T14:10:50.951Z,21
2019-04-07T14:11:33.891Z,21
2019-04-07T14:12:35.011Z,21
2019-04-07T14:13:22.873Z,21
2019-04-07T14:14:03.293Z,21
2019-04-07T14:14:54.718Z,21
2019-04-07T16:07:31.677Z,20.9
2019-04-07T16:08:18.053Z,20.9
2019-04-07T16:10:03.765Z,20.9
2019-04-07T16:10:27.772Z,20.9
2019-04-07T16:11:16.504Z,20.9
2019-04-07T16:12:13.322Z,20.9
2019-04-07T16:13:15.872Z,20.9
2019-04-07T16:13:43.252Z,20.9
2019-04-07T16:14:33.332Z,20.9
2019-04-07T16:15:29.597Z,20.9
2019-04-07T16:16:12.242Z,20.9
2019-04-07T16:17:19.489Z,20.9
2019-04-07T16:17:59.299Z,20.9
2019-04-07T16:18:51.605Z,20.8
2019-04-07T16:20:36.306Z,20.9
2019-04-07T16:20:59.846Z,20.9
2019-04-07T16:21:54.835Z,20.9
2019-04-07T16:22:38.178Z,20.9
2019-04-07T16:23:36.299Z,20.8
2019-04-07T16:24:19.335Z,20.9
2019-04-07T16:25:12.987Z,20.9
2019-04-07T16:26:05.314Z,20.9
2019-04-07T16:26:53.662Z,20.9
2019-04-07T16:27:49.203Z,20.9
2019-04-07T16:28:33.089Z,20.8
2019-04-07T16:29:27.320Z,20.9
2019-04-07T16:30:10.345Z,20.8
2019-04-07T16:31:06.146Z,20.8
2019-04-07T16:31:47.744Z,20.9
2019-04-07T16:32:42.577Z,20.8
2019-04-07T16:33:35.805Z,20.8
2019-04-07T16:34:26.222Z,20.9
2019-04-07T16:35:14.885Z,20.9
2019-04-07T16:36:11.294Z,20.8
2019-04-07T16:36:58.154Z,20.9
2019-04-07T16:37:45.729Z,20.8
2019-04-07T16:38:35.308Z,20.9
2019-04-07T16:39:23.775Z,20.8
2019-04-07T16:40:19.614Z,20.8
2019-04-07T16:40:59.424Z,20.8
2019-04-07T16:41:55.611Z,20.8
2019-04-07T16:42:39.792Z,20.9
2019-04-07T16:43:47.221Z,20.8
2019-04-07T16:44:25.047Z,20.8
2019-04-07T16:45:19.692Z,20.8
2019-04-07T16:46:04.254Z,20.9
2019-04-07T16:46:50.729Z,20.8
2019-04-07T16:47:51.147Z,20.8
2019-04-07T16:48:28.303Z,20.8
2019-04-07T16:49:34.088Z,20.8
2019-04-07T16:50:11.111Z,20.8
2019-04-07T16:51:13.460Z,20.8
2019-04-07T16:51:51.533Z,20.8
2019-04-07T16:52:50.220Z,20.8
2019-04-07T16:53:29.086Z,20.8
2019-04-07T16:54:27.141Z,20.8
2019-04-07T16:55:20.195Z,20.8
2019-04-07T16:56:10.156Z,20.8
2019-04-07T16:57:00.011Z,20.8
2019-04-07T16:57:48.458Z,20.8
2019-04-07T16:58:41.587Z,20.8
2019-04-07T16:59:26.405Z,20.8
2019-04-07T17:00:16.928Z,20.8
2019-04-07T17:01:02.984Z,20.8
2019-04-07T17:01:51.415Z,20.8
2019-04-07T17:02:41.385Z,20.8
2019-04-07T17:03:31.012Z,20.8
2019-04-07T17:04:21.773Z,20.8
2019-04-07T17:05:14.181Z,20.8
2019-04-07T17:06:13.429Z,20.8
2019-04-07T17:07:26.171Z,20.8
2019-04-07T17:07:49.493Z,20.8
2019-04-07T17:08:44.403Z,20.8
2019-04-07T17:09:33.313Z,20.8
2019-04-07T17:10:21.199Z,20.8
2019-04-07T17:11:12.777Z,20.8
2019-04-07T17:11:58.850Z,20.7